sensor_id;sensor_type;location;lat;lon;timestamp;P1;durP1;ratioP1;P2;durP2;ratioP2
79261;SDS011;68699;48.220;16.358;2024-01-30T00:00:13;16.23;;;11.27;;
79261;SDS011;68699;48.220;16.358;2024-01-30T00:02:40;13.27;;;10.83;;
79261;SDS011;68699;48.220;16.358;2024-01-30T00:05:06;14.47;;;11.27;;
79261;SDS011;68699;48.220;16.358;2024-01-30T00:07:32;14.13;;;10.50;;
79261;SDS011;68699;48.220;16.358;2024-01-30T00:09:58;14.53;;;11.00;;
79261;SDS011;68699;48.220;16.358;2024-01-30T00:12:24;17.27;;;11.37;;
79261;SDS011;68699;48.220;16.358;2024-01-30T00:14:51;15.23;;;10.93;;
79261;SDS011;68699;48.220;16.358;2024-01-30T00:17:17;14.63;;;11.03;;
79261;SDS011;68699;48.220;16.358;2024-01-30T00:19:44;14.87;;;11.20;;
79261;SDS011;68699;48.220;16.358;2024-01-30T00:22:10;15.53;;;11.93;;
79261;SDS011;68699;48.220;16.358;2024-01-30T00:24:36;16.53;;;11.93;;
79261;SDS011;68699;48.220;16.358;2024-01-30T00:27:02;16.37;;;11.77;;
79261;SDS011;68699;48.220;16.358;2024-01-30T00:29:29;16.77;;;11.80;;
79261;SDS011;68699;48.220;16.358;2024-01-30T00:31:58;13.73;;;11.13;;
79261;SDS011;68699;48.220;16.358;2024-01-30T00:34:24;16.20;;;11.37;;
79261;SDS011;68699;48.220;16.358;2024-01-30T00:36:50;14.67;;;10.83;;
79261;SDS011;68699;48.220;16.358;2024-01-30T00:39:16;13.60;;;11.10;;
79261;SDS011;68699;48.220;16.358;2024-01-30T00:41:44;15.50;;;11.73;;
79261;SDS011;68699;48.220;16.358;2024-01-30T00:44:10;17.53;;;11.77;;
79261;SDS011;68699;48.220;16.358;2024-01-30T00:46:36;15.77;;;11.70;;
79261;SDS011;68699;48.220;16.358;2024-01-30T00:49:02;12.73;;;11.03;;
79261;SDS011;68699;48.220;16.358;2024-01-30T00:51:28;18.03;;;11.73;;
79261;SDS011;68699;48.220;16.358;2024-01-30T00:53:54;15.80;;;11.57;;
79261;SDS011;68699;48.220;16.358;2024-01-30T00:56:21;15.17;;;11.70;;
79261;SDS011;68699;48.220;16.358;2024-01-30T00:58:47;14.17;;;11.57;;
79261;SDS011;68699;48.220;16.358;2024-01-30T01:01:13;14.47;;;11.63;;
79261;SDS011;68699;48.220;16.358;2024-01-30T01:03:39;15.70;;;11.63;;
79261;SDS011;68699;48.220;16.358;2024-01-30T01:06:08;18.93;;;12.17;;
79261;SDS011;68699;48.220;16.358;2024-01-30T01:08:34;17.03;;;12.00;;
79261;SDS011;68699;48.220;16.358;2024-01-30T01:11:01;13.60;;;11.03;;
79261;SDS011;68699;48.220;16.358;2024-01-30T01:13:28;15.23;;;11.30;;
79261;SDS011;68699;48.220;16.358;2024-01-30T01:15:54;16.90;;;11.90;;
79261;SDS011;68699;48.220;16.358;2024-01-30T01:18:20;14.27;;;10.63;;
79261;SDS011;68699;48.220;16.358;2024-01-30T01:20:46;14.60;;;10.43;;
79261;SDS011;68699;48.220;16.358;2024-01-30T01:23:12;12.63;;;10.73;;
79261;SDS011;68699;48.220;16.358;2024-01-30T01:25:39;15.97;;;10.87;;
79261;SDS011;68699;48.220;16.358;2024-01-30T01:28:05;16.10;;;11.50;;
79261;SDS011;68699;48.220;16.358;2024-01-30T01:30:31;15.07;;;10.90;;
79261;SDS011;68699;48.220;16.358;2024-01-30T01:32:57;18.00;;;11.77;;
79261;SDS011;68699;48.220;16.358;2024-01-30T01:35:26;18.37;;;11.53;;
79261;SDS011;68699;48.220;16.358;2024-01-30T01:37:52;14.80;;;11.30;;
79261;SDS011;68699;48.220;16.358;2024-01-30T01:40:24;15.57;;;11.33;;
79261;SDS011;68699;48.220;16.358;2024-01-30T01:42:50;16.00;;;11.57;;
79261;SDS011;68699;48.220;16.358;2024-01-30T01:45:17;15.00;;;11.47;;
79261;SDS011;68699;48.220;16.358;2024-01-30T01:47:43;15.27;;;11.40;;
79261;SDS011;68699;48.220;16.358;2024-01-30T01:50:11;14.87;;;11.10;;
79261;SDS011;68699;48.220;16.358;2024-01-30T01:52:38;15.40;;;11.37;;
79261;SDS011;68699;48.220;16.358;2024-01-30T01:55:05;13.97;;;11.67;;
79261;SDS011;68699;48.220;16.358;2024-01-30T01:57:31;14.37;;;11.50;;
79261;SDS011;68699;48.220;16.358;2024-01-30T01:59:57;16.27;;;11.83;;
79261;SDS011;68699;48.220;16.358;2024-01-30T02:02:24;16.13;;;11.27;;
79261;SDS011;68699;48.220;16.358;2024-01-30T02:04:50;16.63;;;11.27;;
79261;SDS011;68699;48.220;16.358;2024-01-30T02:07:16;16.43;;;11.00;;
79261;SDS011;68699;48.220;16.358;2024-01-30T02:09:42;15.70;;;11.43;;
79261;SDS011;68699;48.220;16.358;2024-01-30T02:12:08;15.17;;;11.40;;
79261;SDS011;68699;48.220;16.358;2024-01-30T02:14:44;16.37;;;11.00;;
79261;SDS011;68699;48.220;16.358;2024-01-30T02:17:10;14.87;;;11.63;;
79261;SDS011;68699;48.220;16.358;2024-01-30T02:19:36;16.00;;;11.57;;
79261;SDS011;68699;48.220;16.358;2024-01-30T02:22:02;14.97;;;11.47;;
79261;SDS011;68699;48.220;16.358;2024-01-30T02:24:28;15.63;;;10.87;;
79261;SDS011;68699;48.220;16.358;2024-01-30T02:26:54;15.20;;;11.30;;
79261;SDS011;68699;48.220;16.358;2024-01-30T02:29:20;13.37;;;10.93;;
79261;SDS011;68699;48.220;16.358;2024-01-30T02:31:46;17.07;;;11.87;;
79261;SDS011;68699;48.220;16.358;2024-01-30T02:34:13;16.83;;;11.40;;
79261;SDS011;68699;48.220;16.358;2024-01-30T02:36:42;14.73;;;10.90;;
79261;SDS011;68699;48.220;16.358;2024-01-30T02:39:08;14.50;;;11.03;;
79261;SDS011;68699;48.220;16.358;2024-01-30T02:41:35;17.07;;;10.97;;
79261;SDS011;68699;48.220;16.358;2024-01-30T02:44:02;16.17;;;11.17;;
79261;SDS011;68699;48.220;16.358;2024-01-30T02:46:28;13.67;;;11.13;;
79261;SDS011;68699;48.220;16.358;2024-01-30T02:48:54;15.23;;;11.50;;
79261;SDS011;68699;48.220;16.358;2024-01-30T02:51:20;15.60;;;10.97;;
79261;SDS011;68699;48.220;16.358;2024-01-30T02:53:46;17.03;;;10.73;;
79261;SDS011;68699;48.220;16.358;2024-01-30T02:56:12;16.60;;;11.33;;
79261;SDS011;68699;48.220;16.358;2024-01-30T02:58:41;15.03;;;11.10;;
79261;SDS011;68699;48.220;16.358;2024-01-30T03:01:07;14.80;;;11.40;;
79261;SDS011;68699;48.220;16.358;2024-01-30T03:03:33;15.13;;;11.00;;
79261;SDS011;68699;48.220;16.358;2024-01-30T03:06:01;14.03;;;11.00;;
79261;SDS011;68699;48.220;16.358;2024-01-30T03:08:27;13.10;;;10.80;;
79261;SDS011;68699;48.220;16.358;2024-01-30T03:10:53;13.80;;;11.07;;
79261;SDS011;68699;48.220;16.358;2024-01-30T03:13:19;13.90;;;10.70;;
79261;SDS011;68699;48.220;16.358;2024-01-30T03:15:45;13.53;;;11.17;;
79261;SDS011;68699;48.220;16.358;2024-01-30T03:18:11;13.67;;;10.73;;
79261;SDS011;68699;48.220;16.358;2024-01-30T03:20:38;15.40;;;11.50;;
79261;SDS011;68699;48.220;16.358;2024-01-30T03:23:04;13.77;;;11.30;;
79261;SDS011;68699;48.220;16.358;2024-01-30T03:25:30;15.23;;;11.07;;
79261;SDS011;68699;48.220;16.358;2024-01-30T03:27:56;16.37;;;11.27;;
79261;SDS011;68699;48.220;16.358;2024-01-30T03:30:22;13.87;;;11.13;;
79261;SDS011;68699;48.220;16.358;2024-01-30T03:32:48;13.93;;;11.10;;
79261;SDS011;68699;48.220;16.358;2024-01-30T03:35:15;15.87;;;11.50;;
79261;SDS011;68699;48.220;16.358;2024-01-30T03:37:41;17.13;;;11.23;;
79261;SDS011;68699;48.220;16.358;2024-01-30T03:40:07;15.87;;;11.60;;
79261;SDS011;68699;48.220;16.358;2024-01-30T03:42:33;15.97;;;11.83;;
79261;SDS011;68699;48.220;16.358;2024-01-30T03:44:59;16.67;;;11.17;;
79261;SDS011;68699;48.220;16.358;2024-01-30T03:47:25;14.47;;;11.37;;
79261;SDS011;68699;48.220;16.358;2024-01-30T03:49:51;15.00;;;11.57;;
79261;SDS011;68699;48.220;16.358;2024-01-30T03:52:17;14.00;;;11.37;;
79261;SDS011;68699;48.220;16.358;2024-01-30T03:54:43;17.67;;;11.83;;
79261;SDS011;68699;48.220;16.358;2024-01-30T03:57:09;15.17;;;11.80;;
79261;SDS011;68699;48.220;16.358;2024-01-30T03:59:35;19.70;;;12.47;;
79261;SDS011;68699;48.220;16.358;2024-01-30T04:02:01;15.57;;;12.30;;
79261;SDS011;68699;48.220;16.358;2024-01-30T04:04:27;16.60;;;12.10;;
79261;SDS011;68699;48.220;16.358;2024-01-30T04:06:53;18.40;;;13.20;;
79261;SDS011;68699;48.220;16.358;2024-01-30T04:09:19;17.83;;;12.57;;
79261;SDS011;68699;48.220;16.358;2024-01-30T04:11:45;17.57;;;12.60;;
79261;SDS011;68699;48.220;16.358;2024-01-30T04:14:11;18.33;;;13.13;;
79261;SDS011;68699;48.220;16.358;2024-01-30T04:16:37;15.50;;;12.80;;
79261;SDS011;68699;48.220;16.358;2024-01-30T04:19:03;15.53;;;12.30;;
79261;SDS011;68699;48.220;16.358;2024-01-30T04:21:29;18.27;;;12.67;;
79261;SDS011;68699;48.220;16.358;2024-01-30T04:23:55;17.97;;;13.23;;
79261;SDS011;68699;48.220;16.358;2024-01-30T04:26:21;17.93;;;12.93;;
79261;SDS011;68699;48.220;16.358;2024-01-30T04:28:47;17.87;;;12.80;;
79261;SDS011;68699;48.220;16.358;2024-01-30T04:31:13;20.33;;;13.37;;
79261;SDS011;68699;48.220;16.358;2024-01-30T04:33:39;18.80;;;12.47;;
79261;SDS011;68699;48.220;16.358;2024-01-30T04:36:08;16.33;;;13.10;;
79261;SDS011;68699;48.220;16.358;2024-01-30T04:38:37;15.93;;;12.63;;
79261;SDS011;68699;48.220;16.358;2024-01-30T04:41:04;16.70;;;12.63;;
79261;SDS011;68699;48.220;16.358;2024-01-30T04:43:30;17.33;;;13.60;;
79261;SDS011;68699;48.220;16.358;2024-01-30T04:45:56;18.60;;;13.93;;
79261;SDS011;68699;48.220;16.358;2024-01-30T04:48:22;18.87;;;13.73;;
79261;SDS011;68699;48.220;16.358;2024-01-30T04:50:48;18.27;;;13.27;;
79261;SDS011;68699;48.220;16.358;2024-01-30T04:53:14;16.73;;;12.90;;
79261;SDS011;68699;48.220;16.358;2024-01-30T04:55:40;17.83;;;14.00;;
79261;SDS011;68699;48.220;16.358;2024-01-30T04:58:06;16.17;;;12.33;;
79261;SDS011;68699;48.220;16.358;2024-01-30T05:00:32;19.67;;;13.00;;
79261;SDS011;68699;48.220;16.358;2024-01-30T05:02:58;18.00;;;13.10;;
79261;SDS011;68699;48.220;16.358;2024-01-30T05:05:24;18.97;;;13.40;;
79261;SDS011;68699;48.220;16.358;2024-01-30T05:07:50;18.20;;;13.50;;
79261;SDS011;68699;48.220;16.358;2024-01-30T05:10:16;18.20;;;12.77;;
79261;SDS011;68699;48.220;16.358;2024-01-30T05:12:43;16.87;;;13.30;;
79261;SDS011;68699;48.220;16.358;2024-01-30T05:15:09;16.70;;;13.03;;
79261;SDS011;68699;48.220;16.358;2024-01-30T05:17:35;18.93;;;13.87;;
79261;SDS011;68699;48.220;16.358;2024-01-30T05:20:01;19.10;;;13.50;;
79261;SDS011;68699;48.220;16.358;2024-01-30T05:22:27;17.00;;;13.27;;
79261;SDS011;68699;48.220;16.358;2024-01-30T05:24:53;17.53;;;13.47;;
79261;SDS011;68699;48.220;16.358;2024-01-30T05:27:19;18.50;;;13.80;;
79261;SDS011;68699;48.220;16.358;2024-01-30T05:29:45;16.97;;;12.63;;
79261;SDS011;68699;48.220;16.358;2024-01-30T05:32:11;20.83;;;14.10;;
79261;SDS011;68699;48.220;16.358;2024-01-30T05:34:37;16.47;;;12.97;;
79261;SDS011;68699;48.220;16.358;2024-01-30T05:37:03;20.63;;;13.67;;
79261;SDS011;68699;48.220;16.358;2024-01-30T05:39:29;17.37;;;13.03;;
79261;SDS011;68699;48.220;16.358;2024-01-30T05:41:57;18.97;;;13.43;;
79261;SDS011;68699;48.220;16.358;2024-01-30T05:44:23;18.90;;;13.23;;
79261;SDS011;68699;48.220;16.358;2024-01-30T05:46:49;18.23;;;13.27;;
79261;SDS011;68699;48.220;16.358;2024-01-30T05:49:15;17.63;;;13.90;;
79261;SDS011;68699;48.220;16.358;2024-01-30T05:51:41;17.40;;;12.80;;
79261;SDS011;68699;48.220;16.358;2024-01-30T05:54:07;16.67;;;12.90;;
79261;SDS011;68699;48.220;16.358;2024-01-30T05:56:33;18.47;;;13.23;;
79261;SDS011;68699;48.220;16.358;2024-01-30T05:58:59;18.63;;;13.17;;
79261;SDS011;68699;48.220;16.358;2024-01-30T06:01:25;18.17;;;13.47;;
79261;SDS011;68699;48.220;16.358;2024-01-30T06:03:51;16.57;;;12.63;;
79261;SDS011;68699;48.220;16.358;2024-01-30T06:06:17;17.27;;;13.90;;
79261;SDS011;68699;48.220;16.358;2024-01-30T06:08:43;18.03;;;13.17;;
79261;SDS011;68699;48.220;16.358;2024-01-30T06:11:10;17.90;;;13.33;;
79261;SDS011;68699;48.220;16.358;2024-01-30T06:13:37;15.13;;;12.40;;
79261;SDS011;68699;48.220;16.358;2024-01-30T06:16:03;17.53;;;12.93;;
79261;SDS011;68699;48.220;16.358;2024-01-30T06:18:29;19.33;;;13.77;;
79261;SDS011;68699;48.220;16.358;2024-01-30T06:20:56;18.07;;;13.50;;
79261;SDS011;68699;48.220;16.358;2024-01-30T06:23:22;19.07;;;13.63;;
79261;SDS011;68699;48.220;16.358;2024-01-30T06:25:48;18.07;;;13.40;;
79261;SDS011;68699;48.220;16.358;2024-01-30T06:28:14;17.40;;;13.33;;
79261;SDS011;68699;48.220;16.358;2024-01-30T06:30:40;17.60;;;13.37;;
79261;SDS011;68699;48.220;16.358;2024-01-30T06:33:06;18.97;;;13.80;;
79261;SDS011;68699;48.220;16.358;2024-01-30T06:35:32;16.00;;;13.20;;
79261;SDS011;68699;48.220;16.358;2024-01-30T06:38:00;21.73;;;13.90;;
79261;SDS011;68699;48.220;16.358;2024-01-30T06:40:26;19.50;;;13.47;;
79261;SDS011;68699;48.220;16.358;2024-01-30T06:42:52;17.73;;;13.43;;
79261;SDS011;68699;48.220;16.358;2024-01-30T06:45:18;18.63;;;13.40;;
79261;SDS011;68699;48.220;16.358;2024-01-30T06:47:44;19.03;;;13.87;;
79261;SDS011;68699;48.220;16.358;2024-01-30T06:50:10;17.27;;;12.87;;
79261;SDS011;68699;48.220;16.358;2024-01-30T06:52:36;20.17;;;13.97;;
79261;SDS011;68699;48.220;16.358;2024-01-30T06:55:02;18.57;;;13.07;;
79261;SDS011;68699;48.220;16.358;2024-01-30T06:57:28;19.70;;;13.30;;
79261;SDS011;68699;48.220;16.358;2024-01-30T06:59:55;19.17;;;12.77;;
79261;SDS011;68699;48.220;16.358;2024-01-30T07:02:21;18.97;;;13.37;;
79261;SDS011;68699;48.220;16.358;2024-01-30T07:04:47;19.40;;;13.27;;
79261;SDS011;68699;48.220;16.358;2024-01-30T07:07:14;17.70;;;12.93;;
79261;SDS011;68699;48.220;16.358;2024-01-30T07:09:41;19.03;;;13.20;;
79261;SDS011;68699;48.220;16.358;2024-01-30T07:12:07;21.27;;;14.00;;
79261;SDS011;68699;48.220;16.358;2024-01-30T07:14:33;19.53;;;13.67;;
79261;SDS011;68699;48.220;16.358;2024-01-30T07:16:59;21.17;;;14.27;;
79261;SDS011;68699;48.220;16.358;2024-01-30T07:19:25;20.63;;;13.83;;
79261;SDS011;68699;48.220;16.358;2024-01-30T07:21:51;17.57;;;13.20;;
79261;SDS011;68699;48.220;16.358;2024-01-30T07:24:17;17.43;;;12.83;;
79261;SDS011;68699;48.220;16.358;2024-01-30T07:26:43;20.87;;;13.07;;
79261;SDS011;68699;48.220;16.358;2024-01-30T07:29:09;19.10;;;12.60;;
79261;SDS011;68699;48.220;16.358;2024-01-30T07:31:35;17.93;;;13.00;;
79261;SDS011;68699;48.220;16.358;2024-01-30T07:34:01;17.57;;;12.70;;
79261;SDS011;68699;48.220;16.358;2024-01-30T07:36:27;17.80;;;12.23;;
79261;SDS011;68699;48.220;16.358;2024-01-30T07:38:53;17.47;;;12.67;;
79261;SDS011;68699;48.220;16.358;2024-01-30T07:41:20;17.67;;;12.73;;
79261;SDS011;68699;48.220;16.358;2024-01-30T07:43:45;16.67;;;13.33;;
79261;SDS011;68699;48.220;16.358;2024-01-30T07:46:12;18.27;;;13.27;;
79261;SDS011;68699;48.220;16.358;2024-01-30T07:48:38;17.17;;;12.77;;
79261;SDS011;68699;48.220;16.358;2024-01-30T07:51:04;15.93;;;12.20;;
79261;SDS011;68699;48.220;16.358;2024-01-30T07:53:30;17.73;;;13.47;;
79261;SDS011;68699;48.220;16.358;2024-01-30T07:55:56;17.93;;;11.87;;
79261;SDS011;68699;48.220;16.358;2024-01-30T07:58:22;16.27;;;11.90;;
79261;SDS011;68699;48.220;16.358;2024-01-30T08:00:48;18.30;;;13.17;;
79261;SDS011;68699;48.220;16.358;2024-01-30T08:03:16;16.87;;;12.57;;
79261;SDS011;68699;48.220;16.358;2024-01-30T08:05:43;17.00;;;12.00;;
79261;SDS011;68699;48.220;16.358;2024-01-30T08:08:09;17.97;;;12.27;;
79261;SDS011;68699;48.220;16.358;2024-01-30T08:10:35;18.67;;;12.63;;
79261;SDS011;68699;48.220;16.358;2024-01-30T08:13:02;19.07;;;12.60;;
79261;SDS011;68699;48.220;16.358;2024-01-30T08:15:28;18.40;;;12.70;;
79261;SDS011;68699;48.220;16.358;2024-01-30T08:17:54;19.57;;;13.10;;
79261;SDS011;68699;48.220;16.358;2024-01-30T08:20:23;15.73;;;11.87;;
79261;SDS011;68699;48.220;16.358;2024-01-30T08:22:49;15.43;;;11.83;;
79261;SDS011;68699;48.220;16.358;2024-01-30T08:25:15;15.83;;;11.93;;
79261;SDS011;68699;48.220;16.358;2024-01-30T08:27:41;15.57;;;11.93;;
79261;SDS011;68699;48.220;16.358;2024-01-30T08:30:07;15.30;;;11.83;;
79261;SDS011;68699;48.220;16.358;2024-01-30T08:32:33;20.77;;;12.30;;
79261;SDS011;68699;48.220;16.358;2024-01-30T08:34:59;16.23;;;12.20;;
79261;SDS011;68699;48.220;16.358;2024-01-30T08:37:28;17.83;;;12.97;;
79261;SDS011;68699;48.220;16.358;2024-01-30T08:39:54;20.13;;;12.03;;
79261;SDS011;68699;48.220;16.358;2024-01-30T08:42:20;15.83;;;12.43;;
79261;SDS011;68699;48.220;16.358;2024-01-30T08:44:50;17.27;;;12.10;;
79261;SDS011;68699;48.220;16.358;2024-01-30T08:47:17;14.90;;;12.23;;
79261;SDS011;68699;48.220;16.358;2024-01-30T08:49:43;16.03;;;11.17;;
79261;SDS011;68699;48.220;16.358;2024-01-30T08:52:12;15.93;;;11.40;;
79261;SDS011;68699;48.220;16.358;2024-01-30T08:54:38;14.53;;;11.73;;
79261;SDS011;68699;48.220;16.358;2024-01-30T08:57:05;16.13;;;11.70;;
79261;SDS011;68699;48.220;16.358;2024-01-30T08:59:31;18.27;;;12.67;;
79261;SDS011;68699;48.220;16.358;2024-01-30T09:01:57;15.40;;;11.90;;
79261;SDS011;68699;48.220;16.358;2024-01-30T09:04:24;16.63;;;12.20;;
79261;SDS011;68699;48.220;16.358;2024-01-30T09:06:50;14.27;;;11.33;;
79261;SDS011;68699;48.220;16.358;2024-01-30T09:09:16;13.77;;;11.57;;
79261;SDS011;68699;48.220;16.358;2024-01-30T09:11:42;18.23;;;12.50;;
79261;SDS011;68699;48.220;16.358;2024-01-30T09:14:08;15.53;;;11.97;;
79261;SDS011;68699;48.220;16.358;2024-01-30T09:16:34;14.87;;;11.27;;
79261;SDS011;68699;48.220;16.358;2024-01-30T09:19:01;18.73;;;12.53;;
79261;SDS011;68699;48.220;16.358;2024-01-30T09:21:27;14.33;;;12.00;;
79261;SDS011;68699;48.220;16.358;2024-01-30T09:24:01;15.10;;;11.30;;
79261;SDS011;68699;48.220;16.358;2024-01-30T09:26:28;17.00;;;11.70;;
79261;SDS011;68699;48.220;16.358;2024-01-30T09:28:53;15.67;;;11.80;;
79261;SDS011;68699;48.220;16.358;2024-01-30T09:31:19;17.30;;;11.67;;
79261;SDS011;68699;48.220;16.358;2024-01-30T09:33:45;14.13;;;10.93;;
79261;SDS011;68699;48.220;16.358;2024-01-30T09:36:13;16.30;;;11.30;;
79261;SDS011;68699;48.220;16.358;2024-01-30T09:38:43;14.50;;;11.50;;
79261;SDS011;68699;48.220;16.358;2024-01-30T09:41:09;15.43;;;11.53;;
79261;SDS011;68699;48.220;16.358;2024-01-30T09:43:36;15.17;;;12.37;;
79261;SDS011;68699;48.220;16.358;2024-01-30T09:46:03;14.43;;;11.43;;
79261;SDS011;68699;48.220;16.358;2024-01-30T09:48:30;14.50;;;11.57;;
79261;SDS011;68699;48.220;16.358;2024-01-30T09:50:56;16.00;;;11.53;;
79261;SDS011;68699;48.220;16.358;2024-01-30T09:53:23;15.47;;;11.33;;
79261;SDS011;68699;48.220;16.358;2024-01-30T09:55:50;14.60;;;11.60;;
79261;SDS011;68699;48.220;16.358;2024-01-30T09:58:16;16.60;;;11.60;;
79261;SDS011;68699;48.220;16.358;2024-01-30T10:00:42;15.23;;;11.43;;
79261;SDS011;68699;48.220;16.358;2024-01-30T10:03:08;18.47;;;13.00;;
79261;SDS011;68699;48.220;16.358;2024-01-30T10:05:35;13.97;;;11.17;;
79261;SDS011;68699;48.220;16.358;2024-01-30T10:08:05;15.23;;;11.30;;
79261;SDS011;68699;48.220;16.358;2024-01-30T10:10:35;15.43;;;11.53;;
79261;SDS011;68699;48.220;16.358;2024-01-30T10:13:01;15.07;;;11.60;;
79261;SDS011;68699;48.220;16.358;2024-01-30T10:15:27;15.60;;;11.37;;
79261;SDS011;68699;48.220;16.358;2024-01-30T10:17:54;15.60;;;10.77;;
79261;SDS011;68699;48.220;16.358;2024-01-30T10:20:20;14.63;;;10.87;;
79261;SDS011;68699;48.220;16.358;2024-01-30T10:22:48;14.30;;;10.93;;
79261;SDS011;68699;48.220;16.358;2024-01-30T10:25:14;14.47;;;11.10;;
79261;SDS011;68699;48.220;16.358;2024-01-30T10:27:41;13.57;;;10.67;;
79261;SDS011;68699;48.220;16.358;2024-01-30T10:30:07;12.80;;;10.67;;
79261;SDS011;68699;48.220;16.358;2024-01-30T10:32:34;13.43;;;10.20;;
79261;SDS011;68699;48.220;16.358;2024-01-30T10:35:00;16.27;;;10.77;;
79261;SDS011;68699;48.220;16.358;2024-01-30T10:37:26;16.87;;;11.13;;
79261;SDS011;68699;48.220;16.358;2024-01-30T10:39:54;13.77;;;10.37;;
79261;SDS011;68699;48.220;16.358;2024-01-30T10:42:22;13.67;;;9.87;;
79261;SDS011;68699;48.220;16.358;2024-01-30T10:45:07;14.97;;;10.60;;
79261;SDS011;68699;48.220;16.358;2024-01-30T10:47:33;13.13;;;10.43;;
79261;SDS011;68699;48.220;16.358;2024-01-30T10:50:01;12.67;;;9.63;;
79261;SDS011;68699;48.220;16.358;2024-01-30T10:52:28;13.00;;;10.33;;
79261;SDS011;68699;48.220;16.358;2024-01-30T10:54:55;12.77;;;9.97;;
79261;SDS011;68699;48.220;16.358;2024-01-30T10:57:27;12.77;;;9.87;;
79261;SDS011;68699;48.220;16.358;2024-01-30T10:59:56;12.77;;;9.17;;
79261;SDS011;68699;48.220;16.358;2024-01-30T11:02:23;13.43;;;9.47;;
79261;SDS011;68699;48.220;16.358;2024-01-30T11:04:49;12.27;;;9.90;;
79261;SDS011;68699;48.220;16.358;2024-01-30T11:09:51;12.63;;;9.33;;
79261;SDS011;68699;48.220;16.358;2024-01-30T11:12:21;13.70;;;10.27;;
79261;SDS011;68699;48.220;16.358;2024-01-30T11:14:48;11.47;;;9.93;;
79261;SDS011;68699;48.220;16.358;2024-01-30T11:17:15;13.97;;;9.50;;
79261;SDS011;68699;48.220;16.358;2024-01-30T11:19:41;12.77;;;9.83;;
79261;SDS011;68699;48.220;16.358;2024-01-30T11:22:07;12.47;;;9.93;;
79261;SDS011;68699;48.220;16.358;2024-01-30T11:24:38;12.63;;;10.57;;
79261;SDS011;68699;48.220;16.358;2024-01-30T11:27:08;12.47;;;9.63;;
79261;SDS011;68699;48.220;16.358;2024-01-30T11:29:34;12.53;;;9.70;;
79261;SDS011;68699;48.220;16.358;2024-01-30T11:32:01;13.27;;;9.07;;
79261;SDS011;68699;48.220;16.358;2024-01-30T11:34:27;11.10;;;9.70;;
79261;SDS011;68699;48.220;16.358;2024-01-30T11:37:00;10.10;;;8.67;;
79261;SDS011;68699;48.220;16.358;2024-01-30T11:39:27;17.57;;;9.87;;
79261;SDS011;68699;48.220;16.358;2024-01-30T11:41:55;10.47;;;9.27;;
79261;SDS011;68699;48.220;16.358;2024-01-30T11:44:24;10.47;;;8.87;;
79261;SDS011;68699;48.220;16.358;2024-01-30T11:46:51;10.27;;;8.47;;
79261;SDS011;68699;48.220;16.358;2024-01-30T11:49:17;9.60;;;7.87;;
79261;SDS011;68699;48.220;16.358;2024-01-30T11:51:47;9.50;;;8.00;;
79261;SDS011;68699;48.220;16.358;2024-01-30T11:54:17;10.93;;;8.20;;
79261;SDS011;68699;48.220;16.358;2024-01-30T11:56:43;11.10;;;8.63;;
79261;SDS011;68699;48.220;16.358;2024-01-30T11:59:09;10.67;;;7.57;;
79261;SDS011;68699;48.220;16.358;2024-01-30T12:01:35;9.80;;;8.73;;
79261;SDS011;68699;48.220;16.358;2024-01-30T12:04:01;9.90;;;8.47;;
79261;SDS011;68699;48.220;16.358;2024-01-30T12:06:28;11.70;;;8.30;;
79261;SDS011;68699;48.220;16.358;2024-01-30T12:08:58;10.37;;;7.90;;
79261;SDS011;68699;48.220;16.358;2024-01-30T12:11:24;9.40;;;8.40;;
79261;SDS011;68699;48.220;16.358;2024-01-30T12:13:51;9.23;;;8.20;;
79261;SDS011;68699;48.220;16.358;2024-01-30T12:16:17;12.93;;;9.00;;
79261;SDS011;68699;48.220;16.358;2024-01-30T12:18:43;9.50;;;8.27;;
79261;SDS011;68699;48.220;16.358;2024-01-30T12:21:09;10.70;;;8.37;;
79261;SDS011;68699;48.220;16.358;2024-01-30T12:23:35;10.00;;;7.83;;
79261;SDS011;68699;48.220;16.358;2024-01-30T12:26:01;9.70;;;8.50;;
79261;SDS011;68699;48.220;16.358;2024-01-30T12:28:28;10.77;;;8.60;;
79261;SDS011;68699;48.220;16.358;2024-01-30T12:31:00;10.20;;;8.93;;
79261;SDS011;68699;48.220;16.358;2024-01-30T12:33:28;11.37;;;8.13;;
79261;SDS011;68699;48.220;16.358;2024-01-30T12:35:54;10.90;;;8.80;;
79261;SDS011;68699;48.220;16.358;2024-01-30T12:38:20;9.70;;;7.87;;
79261;SDS011;68699;48.220;16.358;2024-01-30T12:40:46;9.43;;;8.40;;
79261;SDS011;68699;48.220;16.358;2024-01-30T12:43:15;10.53;;;8.30;;
79261;SDS011;68699;48.220;16.358;2024-01-30T12:45:42;11.50;;;8.17;;
79261;SDS011;68699;48.220;16.358;2024-01-30T12:48:08;10.60;;;8.60;;
79261;SDS011;68699;48.220;16.358;2024-01-30T12:50:34;11.53;;;7.90;;
79261;SDS011;68699;48.220;16.358;2024-01-30T12:53:00;11.50;;;8.43;;
79261;SDS011;68699;48.220;16.358;2024-01-30T12:55:26;10.70;;;8.67;;
79261;SDS011;68699;48.220;16.358;2024-01-30T12:57:53;10.13;;;8.37;;
79261;SDS011;68699;48.220;16.358;2024-01-30T13:00:20;10.60;;;8.63;;
79261;SDS011;68699;48.220;16.358;2024-01-30T13:02:47;10.63;;;8.07;;
79261;SDS011;68699;48.220;16.358;2024-01-30T13:05:13;12.30;;;7.93;;
79261;SDS011;68699;48.220;16.358;2024-01-30T13:07:39;11.93;;;9.30;;
79261;SDS011;68699;48.220;16.358;2024-01-30T13:10:05;10.50;;;8.57;;
79261;SDS011;68699;48.220;16.358;2024-01-30T13:12:32;9.30;;;8.30;;
79261;SDS011;68699;48.220;16.358;2024-01-30T13:14:59;13.07;;;8.33;;
79261;SDS011;68699;48.220;16.358;2024-01-30T13:17:29;8.97;;;7.77;;
79261;SDS011;68699;48.220;16.358;2024-01-30T13:19:56;11.47;;;8.30;;
79261;SDS011;68699;48.220;16.358;2024-01-30T13:22:22;10.63;;;8.37;;
79261;SDS011;68699;48.220;16.358;2024-01-30T13:24:48;10.07;;;7.97;;
79261;SDS011;68699;48.220;16.358;2024-01-30T13:27:14;10.90;;;8.30;;
79261;SDS011;68699;48.220;16.358;2024-01-30T13:29:40;15.87;;;8.67;;
79261;SDS011;68699;48.220;16.358;2024-01-30T13:32:06;12.03;;;8.13;;
79261;SDS011;68699;48.220;16.358;2024-01-30T13:34:32;10.30;;;8.73;;
79261;SDS011;68699;48.220;16.358;2024-01-30T13:36:58;12.13;;;8.43;;
79261;SDS011;68699;48.220;16.358;2024-01-30T13:39:24;9.63;;;7.80;;
79261;SDS011;68699;48.220;16.358;2024-01-30T13:41:50;10.20;;;7.93;;
79261;SDS011;68699;48.220;16.358;2024-01-30T13:44:17;8.93;;;7.87;;
79261;SDS011;68699;48.220;16.358;2024-01-30T13:46:43;10.30;;;8.23;;
79261;SDS011;68699;48.220;16.358;2024-01-30T13:49:10;10.30;;;7.83;;
79261;SDS011;68699;48.220;16.358;2024-01-30T13:51:37;11.00;;;8.33;;
79261;SDS011;68699;48.220;16.358;2024-01-30T13:54:03;10.83;;;8.57;;
79261;SDS011;68699;48.220;16.358;2024-01-30T13:56:29;9.93;;;7.83;;
79261;SDS011;68699;48.220;16.358;2024-01-30T13:58:57;9.43;;;8.17;;
79261;SDS011;68699;48.220;16.358;2024-01-30T14:01:26;11.13;;;7.93;;
79261;SDS011;68699;48.220;16.358;2024-01-30T14:03:52;9.37;;;7.47;;
79261;SDS011;68699;48.220;16.358;2024-01-30T14:06:18;10.83;;;8.13;;
79261;SDS011;68699;48.220;16.358;2024-01-30T14:08:47;8.33;;;7.40;;
79261;SDS011;68699;48.220;16.358;2024-01-30T14:11:13;11.17;;;8.13;;